sensor_id;sensor_type;location;lat;lon;timestamp;temperature;humidity
44305;DHT22;30019;50.576;8.568;2023-12-04T00:00:37;-1.30;99.90
44305;DHT22;30019;50.576;8.568;2023-12-04T00:03:03;-1.30;99.90
44305;DHT22;30019;50.576;8.568;2023-12-04T00:18:58;-1.40;99.90
44305;DHT22;30019;50.576;8.568;2023-12-04T00:21:23;-1.40;99.90
44305;DHT22;30019;50.576;8.568;2023-12-04T00:23:49;-1.50;99.90
44305;DHT22;30019;50.576;8.568;2023-12-04T00:26:16;-1.50;99.90
44305;DHT22;30019;50.576;8.568;2023-12-04T00:28:41;-1.50;99.90
44305;DHT22;30019;50.576;8.568;2023-12-04T00:31:07;-1.50;99.90
44305;DHT22;30019;50.576;8.568;2023-12-04T00:33:33;-1.60;99.90
44305;DHT22;30019;50.576;8.568;2023-12-04T00:35:59;-1.60;99.90
44305;DHT22;30019;50.576;8.568;2023-12-04T00:38:24;-1.50;99.90
44305;DHT22;30019;50.576;8.568;2023-12-04T00:40:50;-1.60;99.90
44305;DHT22;30019;50.576;8.568;2023-12-04T00:43:16;-1.50;99.90
44305;DHT22;30019;50.576;8.568;2023-12-04T00:45:41;-1.50;99.90
44305;DHT22;30019;50.576;8.568;2023-12-04T00:48:07;-1.50;99.90
44305;DHT22;30019;50.576;8.568;2023-12-04T00:50:32;-1.40;99.90
44305;DHT22;30019;50.576;8.568;2023-12-04T00:52:58;-1.40;99.90
44305;DHT22;30019;50.576;8.568;2023-12-04T00:55:23;-1.50;99.90
44305;DHT22;30019;50.576;8.568;2023-12-04T00:57:49;-1.40;99.90
44305;DHT22;30019;50.576;8.568;2023-12-04T01:00:15;-1.40;99.90
44305;DHT22;30019;50.576;8.568;2023-12-04T01:02:41;-1.40;99.90
44305;DHT22;30019;50.576;8.568;2023-12-04T01:05:07;-1.50;99.90
44305;DHT22;30019;50.576;8.568;2023-12-04T01:07:32;-1.40;99.90
44305;DHT22;30019;50.576;8.568;2023-12-04T01:09:58;-1.50;99.90
44305;DHT22;30019;50.576;8.568;2023-12-04T01:12:23;-1.40;99.90
44305;DHT22;30019;50.576;8.568;2023-12-04T01:14:49;-1.50;99.90
44305;DHT22;30019;50.576;8.568;2023-12-04T01:17:14;-1.50;99.90
44305;DHT22;30019;50.576;8.568;2023-12-04T01:19:40;-1.50;99.90
44305;DHT22;30019;50.576;8.568;2023-12-04T01:22:05;-1.50;99.90
44305;DHT22;30019;50.576;8.568;2023-12-04T01:24:31;-1.50;99.90
44305;DHT22;30019;50.576;8.568;2023-12-04T01:26:57;-1.60;99.90
44305;DHT22;30019;50.576;8.568;2023-12-04T01:29:22;-1.50;99.90
44305;DHT22;30019;50.576;8.568;2023-12-04T01:31:48;-1.50;99.90
44305;DHT22;30019;50.576;8.568;2023-12-04T01:34:13;-1.50;99.90
44305;DHT22;30019;50.576;8.568;2023-12-04T01:36:42;-1.50;99.90
44305;DHT22;30019;50.576;8.568;2023-12-04T01:39:08;-1.50;99.90
44305;DHT22;30019;50.576;8.568;2023-12-04T01:41:34;-1.50;99.90
44305;DHT22;30019;50.576;8.568;2023-12-04T01:43:59;-1.50;99.90
44305;DHT22;30019;50.576;8.568;2023-12-04T01:46:25;-1.40;99.90
44305;DHT22;30019;50.576;8.568;2023-12-04T01:48:52;-1.50;99.90
44305;DHT22;30019;50.576;8.568;2023-12-04T01:51:19;-1.50;99.90
44305;DHT22;30019;50.576;8.568;2023-12-04T01:53:45;-1.50;99.90
44305;DHT22;30019;50.576;8.568;2023-12-04T01:56:12;-1.60;99.90
44305;DHT22;30019;50.576;8.568;2023-12-04T01:58:38;-1.70;99.90
44305;DHT22;30019;50.576;8.568;2023-12-04T02:01:05;-1.70;99.90
44305;DHT22;30019;50.576;8.568;2023-12-04T02:03:30;-1.80;99.90
44305;DHT22;30019;50.576;8.568;2023-12-04T02:05:58;-1.80;99.90
44305;DHT22;30019;50.576;8.568;2023-12-04T02:08:25;-1.80;99.90
44305;DHT22;30019;50.576;8.568;2023-12-04T02:10:51;-1.80;99.90
44305;DHT22;30019;50.576;8.568;2023-12-04T02:13:17;-1.90;99.90
44305;DHT22;30019;50.576;8.568;2023-12-04T02:15:43;-1.90;99.90
44305;DHT22;30019;50.576;8.568;2023-12-04T02:18:09;-1.90;99.90
44305;DHT22;30019;50.576;8.568;2023-12-04T02:20:35;-1.90;99.90
44305;DHT22;30019;50.576;8.568;2023-12-04T02:23:01;-1.90;99.90
44305;DHT22;30019;50.576;8.568;2023-12-04T02:25:28;-1.90;99.90
44305;DHT22;30019;50.576;8.568;2023-12-04T02:27:54;-1.80;99.90
44305;DHT22;30019;50.576;8.568;2023-12-04T02:30:23;-1.90;99.90
44305;DHT22;30019;50.576;8.568;2023-12-04T02:32:50;-1.90;99.90
44305;DHT22;30019;50.576;8.568;2023-12-04T02:35:20;-1.90;99.90
44305;DHT22;30019;50.576;8.568;2023-12-04T02:37:47;-1.90;99.90
44305;DHT22;30019;50.576;8.568;2023-12-04T02:40:13;-1.90;99.90
44305;DHT22;30019;50.576;8.568;2023-12-04T02:42:39;-1.90;99.90
44305;DHT22;30019;50.576;8.568;2023-12-04T02:45:05;-1.90;99.90
44305;DHT22;30019;50.576;8.568;2023-12-04T02:47:31;-1.90;99.90
44305;DHT22;30019;50.576;8.568;2023-12-04T02:49:56;-2.00;99.90
44305;DHT22;30019;50.576;8.568;2023-12-04T02:52:22;-2.00;99.90
44305;DHT22;30019;50.576;8.568;2023-12-04T02:54:47;-2.00;99.90
44305;DHT22;30019;50.576;8.568;2023-12-04T02:57:13;-2.00;99.90
44305;DHT22;30019;50.576;8.568;2023-12-04T02:59:38;-2.10;99.90
44305;DHT22;30019;50.576;8.568;2023-12-04T03:02:04;-2.00;99.90
44305;DHT22;30019;50.576;8.568;2023-12-04T03:04:31;-2.10;99.90
44305;DHT22;30019;50.576;8.568;2023-12-04T03:06:57;-2.10;99.90
44305;DHT22;30019;50.576;8.568;2023-12-04T03:09:23;-2.10;99.90
44305;DHT22;30019;50.576;8.568;2023-12-04T03:11:48;-2.10;99.90
44305;DHT22;30019;50.576;8.568;2023-12-04T03:14:14;-2.10;99.90
44305;DHT22;30019;50.576;8.568;2023-12-04T03:16:39;-2.20;99.90
44305;DHT22;30019;50.576;8.568;2023-12-04T03:19:05;-2.20;99.90
44305;DHT22;30019;50.576;8.568;2023-12-04T03:21:31;-2.20;99.90
44305;DHT22;30019;50.576;8.568;2023-12-04T03:23:56;-2.20;99.90
44305;DHT22;30019;50.576;8.568;2023-12-04T03:26:22;-2.20;99.90
44305;DHT22;30019;50.576;8.568;2023-12-04T03:28:47;-2.30;99.90
44305;DHT22;30019;50.576;8.568;2023-12-04T03:31:13;-2.30;99.90
44305;DHT22;30019;50.576;8.568;2023-12-04T03:33:39;-2.30;99.90
44305;DHT22;30019;50.576;8.568;2023-12-04T03:36:05;-2.30;99.90
44305;DHT22;30019;50.576;8.568;2023-12-04T03:38:31;-2.40;99.90
44305;DHT22;30019;50.576;8.568;2023-12-04T03:40:56;-2.40;99.90
44305;DHT22;30019;50.576;8.568;2023-12-04T03:43:22;-2.40;99.90
44305;DHT22;30019;50.576;8.568;2023-12-04T03:45:47;-2.40;99.90
44305;DHT22;30019;50.576;8.568;2023-12-04T03:48:13;-2.40;99.90
44305;DHT22;30019;50.576;8.568;2023-12-04T03:50:38;-2.40;99.90
44305;DHT22;30019;50.576;8.568;2023-12-04T03:53:04;-2.40;99.90
44305;DHT22;30019;50.576;8.568;2023-12-04T03:55:29;-2.40;99.90
44305;DHT22;30019;50.576;8.568;2023-12-04T03:57:56;-2.40;99.90
44305;DHT22;30019;50.576;8.568;2023-12-04T04:00:22;-2.40;99.90
44305;DHT22;30019;50.576;8.568;2023-12-04T04:02:48;-2.40;99.90
44305;DHT22;30019;50.576;8.568;2023-12-04T04:05:14;-2.40;99.90
44305;DHT22;30019;50.576;8.568;2023-12-04T04:07:40;-2.40;99.90
44305;DHT22;30019;50.576;8.568;2023-12-04T04:10:07;-2.40;99.90
44305;DHT22;30019;50.576;8.568;2023-12-04T04:12:32;-2.40;99.90
44305;DHT22;30019;50.576;8.568;2023-12-04T04:14:58;-2.30;99.90
44305;DHT22;30019;50.576;8.568;2023-12-04T04:17:24;-2.30;99.90
44305;DHT22;30019;50.576;8.568;2023-12-04T04:19:53;-2.30;99.90
44305;DHT22;30019;50.576;8.568;2023-12-04T04:22:22;-2.30;99.90
44305;DHT22;30019;50.576;8.568;2023-12-04T04:24:48;-2.30;99.90
44305;DHT22;30019;50.576;8.568;2023-12-04T04:27:14;-2.40;99.90
44305;DHT22;30019;50.576;8.568;2023-12-04T04:29:39;-2.40;99.90
44305;DHT22;30019;50.576;8.568;2023-12-04T04:32:05;-2.40;99.90
44305;DHT22;30019;50.576;8.568;2023-12-04T04:34:31;-2.40;99.90
44305;DHT22;30019;50.576;8.568;2023-12-04T04:36:57;-2.40;99.90
44305;DHT22;30019;50.576;8.568;2023-12-04T04:39:22;-2.40;99.90
44305;DHT22;30019;50.576;8.568;2023-12-04T04:41:48;-2.40;99.90
44305;DHT22;30019;50.576;8.568;2023-12-04T04:44:13;-2.40;99.90
44305;DHT22;30019;50.576;8.568;2023-12-04T04:46:39;-2.40;99.90
44305;DHT22;30019;50.576;8.568;2023-12-04T04:49:05;-2.40;99.90
44305;DHT22;30019;50.576;8.568;2023-12-04T04:51:34;-2.40;99.90
44305;DHT22;30019;50.576;8.568;2023-12-04T04:54:00;-2.40;99.90
44305;DHT22;30019;50.576;8.568;2023-12-04T04:56:26;-2.40;99.90
44305;DHT22;30019;50.576;8.568;2023-12-04T04:58:52;-2.40;99.90
44305;DHT22;30019;50.576;8.568;2023-12-04T05:01:17;-2.30;99.90
44305;DHT22;30019;50.576;8.568;2023-12-04T05:03:43;-2.30;99.90
44305;DHT22;30019;50.576;8.568;2023-12-04T05:06:09;-2.30;99.90
44305;DHT22;30019;50.576;8.568;2023-12-04T05:08:34;-2.30;99.90
44305;DHT22;30019;50.576;8.568;2023-12-04T05:11:00;-2.30;99.90
44305;DHT22;30019;50.576;8.568;2023-12-04T05:13:26;-2.30;99.90
44305;DHT22;30019;50.576;8.568;2023-12-04T05:15:52;-2.40;99.90
44305;DHT22;30019;50.576;8.568;2023-12-04T05:18:17;-2.40;99.90
44305;DHT22;30019;50.576;8.568;2023-12-04T05:20:43;-2.40;99.90
44305;DHT22;30019;50.576;8.568;2023-12-04T05:23:08;-2.50;99.90
44305;DHT22;30019;50.576;8.568;2023-12-04T05:25:34;-2.50;99.90
44305;DHT22;30019;50.576;8.568;2023-12-04T05:27:59;-2.50;99.90
44305;DHT22;30019;50.576;8.568;2023-12-04T05:30:25;-2.50;99.90
44305;DHT22;30019;50.576;8.568;2023-12-04T05:32:51;-2.50;99.90
44305;DHT22;30019;50.576;8.568;2023-12-04T05:35:16;-2.60;99.90
44305;DHT22;30019;50.576;8.568;2023-12-04T05:37:42;-2.60;99.90
44305;DHT22;30019;50.576;8.568;2023-12-04T05:40:08;-2.60;99.90
44305;DHT22;30019;50.576;8.568;2023-12-04T05:42:34;-2.60;99.90
44305;DHT22;30019;50.576;8.568;2023-12-04T05:45:00;-2.60;99.90
44305;DHT22;30019;50.576;8.568;2023-12-04T05:47:26;-2.50;99.90
44305;DHT22;30019;50.576;8.568;2023-12-04T05:49:51;-2.60;99.90
44305;DHT22;30019;50.576;8.568;2023-12-04T05:52:17;-2.50;99.90
44305;DHT22;30019;50.576;8.568;2023-12-04T05:54:43;-2.50;99.90
44305;DHT22;30019;50.576;8.568;2023-12-04T05:57:08;-2.50;99.90
44305;DHT22;30019;50.576;8.568;2023-12-04T05:59:34;-2.50;99.90
44305;DHT22;30019;50.576;8.568;2023-12-04T06:02:01;-2.50;99.90
44305;DHT22;30019;50.576;8.568;2023-12-04T06:04:27;-2.50;99.90
44305;DHT22;30019;50.576;8.568;2023-12-04T06:06:52;-2.60;99.90
44305;DHT22;30019;50.576;8.568;2023-12-04T06:09:18;-2.50;99.90
44305;DHT22;30019;50.576;8.568;2023-12-04T06:11:44;-2.60;99.90
44305;DHT22;30019;50.576;8.568;2023-12-04T06:14:09;-2.60;99.90
44305;DHT22;30019;50.576;8.568;2023-12-04T06:16:36;-2.60;99.90
44305;DHT22;30019;50.576;8.568;2023-12-04T06:19:02;-2.60;99.90
44305;DHT22;30019;50.576;8.568;2023-12-04T06:21:30;-2.70;99.90
44305;DHT22;30019;50.576;8.568;2023-12-04T06:23:56;-2.70;99.90
44305;DHT22;30019;50.576;8.568;2023-12-04T06:26:22;-2.70;99.90
44305;DHT22;30019;50.576;8.568;2023-12-04T06:28:48;-2.70;99.90
44305;DHT22;30019;50.576;8.568;2023-12-04T06:31:14;-2.70;99.90
44305;DHT22;30019;50.576;8.568;2023-12-04T06:33:40;-2.70;99.90
44305;DHT22;30019;50.576;8.568;2023-12-04T06:36:06;-2.60;99.90
44305;DHT22;30019;50.576;8.568;2023-12-04T06:38:32;-2.60;99.90
44305;DHT22;30019;50.576;8.568;2023-12-04T06:41:01;-2.60;99.90
44305;DHT22;30019;50.576;8.568;2023-12-04T06:43:27;-2.70;99.90
44305;DHT22;30019;50.576;8.568;2023-12-04T06:45:53;-2.70;99.90
44305;DHT22;30019;50.576;8.568;2023-12-04T06:48:22;-2.60;99.90
44305;DHT22;30019;50.576;8.568;2023-12-04T06:50:48;-2.60;99.90
44305;DHT22;30019;50.576;8.568;2023-12-04T06:53:13;-2.70;99.90
44305;DHT22;30019;50.576;8.568;2023-12-04T06:55:39;-2.70;99.90
44305;DHT22;30019;50.576;8.568;2023-12-04T06:58:05;-2.80;99.90
44305;DHT22;30019;50.576;8.568;2023-12-04T07:00:30;-2.80;99.90
44305;DHT22;30019;50.576;8.568;2023-12-04T07:02:56;-2.80;99.90
44305;DHT22;30019;50.576;8.568;2023-12-04T07:05:22;-2.80;99.90
44305;DHT22;30019;50.576;8.568;2023-12-04T07:07:47;-2.80;99.90
44305;DHT22;30019;50.576;8.568;2023-12-04T07:10:13;-2.70;99.90
44305;DHT22;30019;50.576;8.568;2023-12-04T07:12:41;-2.80;99.90
44305;DHT22;30019;50.576;8.568;2023-12-04T07:15:08;-2.80;99.90
44305;DHT22;30019;50.576;8.568;2023-12-04T07:17:35;-2.80;99.90
44305;DHT22;30019;50.576;8.568;2023-12-04T07:20:00;-2.80;99.90
44305;DHT22;30019;50.576;8.568;2023-12-04T07:22:26;-2.80;99.90
44305;DHT22;30019;50.576;8.568;2023-12-04T07:24:51;-2.80;99.90
44305;DHT22;30019;50.576;8.568;2023-12-04T07:27:17;-2.70;99.90
44305;DHT22;30019;50.576;8.568;2023-12-04T07:29:43;-2.60;99.90
44305;DHT22;30019;50.576;8.568;2023-12-04T07:32:08;-2.70;99.90
44305;DHT22;30019;50.576;8.568;2023-12-04T07:34:34;-2.60;99.90
44305;DHT22;30019;50.576;8.568;2023-12-04T07:36:59;-2.50;99.90
44305;DHT22;30019;50.576;8.568;2023-12-04T07:39:25;-2.50;99.90
44305;DHT22;30019;50.576;8.568;2023-12-04T07:41:51;-2.50;99.90
44305;DHT22;30019;50.576;8.568;2023-12-04T07:44:16;-2.50;99.90
44305;DHT22;30019;50.576;8.568;2023-12-04T07:46:42;-2.50;99.90
44305;DHT22;30019;50.576;8.568;2023-12-04T07:49:07;-2.50;99.90
44305;DHT22;30019;50.576;8.568;2023-12-04T07:51:33;-2.40;99.90
44305;DHT22;30019;50.576;8.568;2023-12-04T07:53:58;-2.40;99.90
44305;DHT22;30019;50.576;8.568;2023-12-04T07:56:24;-2.40;99.90
44305;DHT22;30019;50.576;8.568;2023-12-04T07:58:49;-2.40;99.90
44305;DHT22;30019;50.576;8.568;2023-12-04T08:01:16;-2.40;99.90
44305;DHT22;30019;50.576;8.568;2023-12-04T08:03:42;-2.40;99.90
44305;DHT22;30019;50.576;8.568;2023-12-04T08:06:07;-2.40;99.90
44305;DHT22;30019;50.576;8.568;2023-12-04T08:08:34;-2.30;99.90
44305;DHT22;30019;50.576;8.568;2023-12-04T08:10:59;-2.30;99.90
44305;DHT22;30019;50.576;8.568;2023-12-04T08:13:25;-2.30;99.90
44305;DHT22;30019;50.576;8.568;2023-12-04T08:15:50;-2.20;99.90
44305;DHT22;30019;50.576;8.568;2023-12-04T08:18:16;-2.20;99.90
44305;DHT22;30019;50.576;8.568;2023-12-04T08:20:42;-2.20;99.90
44305;DHT22;30019;50.576;8.568;2023-12-04T08:23:08;-2.10;99.90
44305;DHT22;30019;50.576;8.568;2023-12-04T08:25:33;-2.00;99.90
44305;DHT22;30019;50.576;8.568;2023-12-04T08:28:01;-2.10;99.90
44305;DHT22;30019;50.576;8.568;2023-12-04T08:30:27;-2.10;99.90
44305;DHT22;30019;50.576;8.568;2023-12-04T08:32:53;-2.00;99.90
44305;DHT22;30019;50.576;8.568;2023-12-04T08:35:19;-1.90;99.90
44305;DHT22;30019;50.576;8.568;2023-12-04T08:37:45;-1.80;99.90
44305;DHT22;30019;50.576;8.568;2023-12-04T08:40:11;-1.80;99.90
44305;DHT22;30019;50.576;8.568;2023-12-04T08:42:37;-1.80;99.90
44305;DHT22;30019;50.576;8.568;2023-12-04T08:45:04;-1.70;99.90
44305;DHT22;30019;50.576;8.568;2023-12-04T08:47:31;-1.60;99.90
44305;DHT22;30019;50.576;8.568;2023-12-04T08:49:57;-1.60;99.90
44305;DHT22;30019;50.576;8.568;2023-12-04T08:52:22;-1.50;99.90
44305;DHT22;30019;50.576;8.568;2023-12-04T08:54:48;-1.40;99.90
44305;DHT22;30019;50.576;8.568;2023-12-04T08:57:13;-1.40;99.90
44305;DHT22;30019;50.576;8.568;2023-12-04T08:59:39;-1.40;99.90
44305;DHT22;30019;50.576;8.568;2023-12-04T09:02:05;-1.40;99.90
44305;DHT22;30019;50.576;8.568;2023-12-04T09:04:31;-1.30;99.90
44305;DHT22;30019;50.576;8.568;2023-12-04T09:06:57;-1.20;99.90
44305;DHT22;30019;50.576;8.568;2023-12-04T09:09:23;-1.10;99.90
44305;DHT22;30019;50.576;8.568;2023-12-04T09:11:48;-1.00;99.90
44305;DHT22;30019;50.576;8.568;2023-12-04T09:14:14;-1.00;99.90
44305;DHT22;30019;50.576;8.568;2023-12-04T09:16:40;-0.90;99.90
44305;DHT22;30019;50.576;8.568;2023-12-04T09:19:05;-1.00;99.90
44305;DHT22;30019;50.576;8.568;2023-12-04T09:21:31;-1.10;99.90
44305;DHT22;30019;50.576;8.568;2023-12-04T09:23:56;-1.00;99.90
44305;DHT22;30019;50.576;8.568;2023-12-04T09:26:22;-1.10;99.90
44305;DHT22;30019;50.576;8.568;2023-12-04T09:28:48;-1.10;99.90
44305;DHT22;30019;50.576;8.568;2023-12-04T09:31:14;-1.10;99.90
44305;DHT22;30019;50.576;8.568;2023-12-04T09:33:40;-1.00;99.90
44305;DHT22;30019;50.576;8.568;2023-12-04T09:36:05;-1.00;99.90
44305;DHT22;30019;50.576;8.568;2023-12-04T09:38:31;-1.00;99.90
44305;DHT22;30019;50.576;8.568;2023-12-04T09:40:59;-1.00;99.90
44305;DHT22;30019;50.576;8.568;2023-12-04T09:43:30;-1.00;99.90
44305;DHT22;30019;50.576;8.568;2023-12-04T09:45:56;-1.00;99.90
44305;DHT22;30019;50.576;8.568;2023-12-04T09:48:26;-1.00;99.90
44305;DHT22;30019;50.576;8.568;2023-12-04T09:50:53;-1.00;99.90
44305;DHT22;30019;50.576;8.568;2023-12-04T09:53:20;-1.00;99.90
44305;DHT22;30019;50.576;8.568;2023-12-04T09:55:49;-0.90;99.90
44305;DHT22;30019;50.576;8.568;2023-12-04T09:58:15;-0.90;99.90
44305;DHT22;30019;50.576;8.568;2023-12-04T10:00:44;-1.00;99.90
44305;DHT22;30019;50.576;8.568;2023-12-04T10:03:09;-0.90;99.90
44305;DHT22;30019;50.576;8.568;2023-12-04T10:05:35;-0.90;99.90
44305;DHT22;30019;50.576;8.568;2023-12-04T10:08:01;-0.90;99.90
44305;DHT22;30019;50.576;8.568;2023-12-04T10:10:26;-0.90;99.90
44305;DHT22;30019;50.576;8.568;2023-12-04T10:12:52;-0.90;99.90
44305;DHT22;30019;50.576;8.568;2023-12-04T10:15:17;-0.90;99.90
44305;DHT22;30019;50.576;8.568;2023-12-04T10:17:43;-1.00;99.90
44305;DHT22;30019;50.576;8.568;2023-12-04T10:20:10;-0.90;99.90
44305;DHT22;30019;50.576;8.568;2023-12-04T10:22:59;-0.90;99.90
44305;DHT22;30019;50.576;8.568;2023-12-04T10:25:26;-0.90;99.90
44305;DHT22;30019;50.576;8.568;2023-12-04T10:27:54;-0.80;99.90
44305;DHT22;30019;50.576;8.568;2023-12-04T10:32:49;-0.80;99.90
44305;DHT22;30019;50.576;8.568;2023-12-04T10:35:18;-0.80;99.90
44305;DHT22;30019;50.576;8.568;2023-12-04T10:37:44;-0.80;99.90
44305;DHT22;30019;50.576;8.568;2023-12-04T10:40:10;-0.80;99.90
44305;DHT22;30019;50.576;8.568;2023-12-04T10:42:35;-0.80;99.90
44305;DHT22;30019;50.576;8.568;2023-12-04T10:45:01;-0.70;99.90
44305;DHT22;30019;50.576;8.568;2023-12-04T10:47:29;-0.70;99.90
44305;DHT22;30019;50.576;8.568;2023-12-04T10:49:56;-0.80;99.90
44305;DHT22;30019;50.576;8.568;2023-12-04T10:52:22;-0.70;99.90
44305;DHT22;30019;50.576;8.568;2023-12-04T10:54:48;-0.70;99.90
44305;DHT22;30019;50.576;8.568;2023-12-04T10:57:27;-0.70;99.90
44305;DHT22;30019;50.576;8.568;2023-12-04T10:59:58;-0.70;99.90
44305;DHT22;30019;50.576;8.568;2023-12-04T11:02:29;-0.70;99.90
44305;DHT22;30019;50.576;8.568;2023-12-04T11:05:08;-0.50;99.90
44305;DHT22;30019;50.576;8.568;2023-12-04T11:07:40;-0.60;99.90
44305;DHT22;30019;50.576;8.568;2023-12-04T11:10:08;-0.50;99.90
44305;DHT22;30019;50.576;8.568;2023-12-04T11:12:39;-0.50;99.90
44305;DHT22;30019;50.576;8.568;2023-12-04T11:15:07;-0.60;99.90
44305;DHT22;30019;50.576;8.568;2023-12-04T11:17:37;-0.60;99.90
44305;DHT22;30019;50.576;8.568;2023-12-04T11:20:11;-0.60;99.90
44305;DHT22;30019;50.576;8.568;2023-12-04T11:22:39;-0.60;99.90
44305;DHT22;30019;50.576;8.568;2023-12-04T11:25:06;-0.70;99.90
44305;DHT22;30019;50.576;8.568;2023-12-04T11:27:34;-0.70;99.90
44305;DHT22;30019;50.576;8.568;2023-12-04T11:30:00;-0.70;99.90
44305;DHT22;30019;50.576;8.568;2023-12-04T11:32:28;-0.70;99.90
44305;DHT22;30019;50.576;8.568;2023-12-04T11:34:55;-0.60;99.90
44305;DHT22;30019;50.576;8.568;2023-12-04T11:37:25;-0.60;99.90
44305;DHT22;30019;50.576;8.568;2023-12-04T11:39:51;-0.50;99.90
44305;DHT22;30019;50.576;8.568;2023-12-04T11:42:23;-0.40;99.90
44305;DHT22;30019;50.576;8.568;2023-12-04T11:44:55;-0.40;99.90
44305;DHT22;30019;50.576;8.568;2023-12-04T11:47:22;-0.30;99.90
44305;DHT22;30019;50.576;8.568;2023-12-04T11:49:47;-0.20;99.90
44305;DHT22;30019;50.576;8.568;2023-12-04T11:52:13;-0.20;99.90
44305;DHT22;30019;50.576;8.568;2023-12-04T11:55:08;-0.10;99.90
44305;DHT22;30019;50.576;8.568;2023-12-04T11:57:40;0.00;99.90
44305;DHT22;30019;50.576;8.568;2023-12-04T12:02:38;-0.20;99.90
44305;DHT22;30019;50.576;8.568;2023-12-04T12:05:05;-0.20;99.90
44305;DHT22;30019;50.576;8.568;2023-12-04T12:07:31;-0.20;99.90
44305;DHT22;30019;50.576;8.568;2023-12-04T12:09:57;-0.20;99.90
44305;DHT22;30019;50.576;8.568;2023-12-04T12:12:25;-0.40;99.90
44305;DHT22;30019;50.576;8.568;2023-12-04T12:14:51;-0.50;99.90
44305;DHT22;30019;50.576;8.568;2023-12-04T12:17:17;-0.50;99.90
44305;DHT22;30019;50.576;8.568;2023-12-04T12:19:43;-0.50;99.90
44305;DHT22;30019;50.576;8.568;2023-12-04T12:22:09;-0.50;99.90
44305;DHT22;30019;50.576;8.568;2023-12-04T12:24:35;-0.60;99.90
44305;DHT22;30019;50.576;8.568;2023-12-04T12:27:01;-0.60;99.90
44305;DHT22;30019;50.576;8.568;2023-12-04T12:29:28;-0.60;99.90
44305;DHT22;30019;50.576;8.568;2023-12-04T12:31:53;-0.60;99.90
44305;DHT22;30019;50.576;8.568;2023-12-04T12:34:20;-0.60;99.90
44305;DHT22;30019;50.576;8.568;2023-12-04T12:36:46;-0.60;99.90
44305;DHT22;30019;50.576;8.568;2023-12-04T12:39:13;-0.60;99.90
44305;DHT22;30019;50.576;8.568;2023-12-04T12:41:38;-0.70;99.90
44305;DHT22;30019;50.576;8.568;2023-12-04T12:44:04;-0.70;99.90
44305;DHT22;30019;50.576;8.568;2023-12-04T12:46:31;-0.70;99.90
44305;DHT22;30019;50.576;8.568;2023-12-04T12:48:56;-0.70;99.90
44305;DHT22;30019;50.576;8.568;2023-12-04T12:51:23;-0.70;99.90
44305;DHT22;30019;50.576;8.568;2023-12-04T12:53:49;-0.80;99.90
44305;DHT22;30019;50.576;8.568;2023-12-04T12:56:15;-0.90;99.90
44305;DHT22;30019;50.576;8.568;2023-12-04T12:58:41;-1.00;99.90
44305;DHT22;30019;50.576;8.568;2023-12-04T13:01:10;-1.00;99.90
44305;DHT22;30019;50.576;8.568;2023-12-04T13:03:35;-1.00;99.90
44305;DHT22;30019;50.576;8.568;2023-12-04T13:06:03;-1.00;99.90
44305;DHT22;30019;50.576;8.568;2023-12-04T13:08:28;-1.00;99.90
44305;DHT22;30019;50.576;8.568;2023-12-04T13:10:55;-1.10;99.90
44305;DHT22;30019;50.576;8.568;2023-12-04T13:13:20;-1.20;99.90
44305;DHT22;30019;50.576;8.568;2023-12-04T13:15:46;-1.20;99.90
44305;DHT22;30019;50.576;8.568;2023-12-04T13:18:12;-1.20;99.90
44305;DHT22;30019;50.576;8.568;2023-12-04T13:20:37;-1.20;99.90
44305;DHT22;30019;50.576;8.568;2023-12-04T13:23:03;-1.20;99.90
44305;DHT22;30019;50.576;8.568;2023-12-04T13:25:28;-1.20;99.90
44305;DHT22;30019;50.576;8.568;2023-12-04T13:27:54;-1.10;99.90
44305;DHT22;30019;50.576;8.568;2023-12-04T13:30:20;-1.10;99.90
44305;DHT22;30019;50.576;8.568;2023-12-04T13:32:46;-1.10;99.90
44305;DHT22;30019;50.576;8.568;2023-12-04T13:35:11;-1.10;99.90
44305;DHT22;30019;50.576;8.568;2023-12-04T13:37:37;-1.10;99.90
44305;DHT22;30019;50.576;8.568;2023-12-04T13:40:05;-1.20;99.90
44305;DHT22;30019;50.576;8.568;2023-12-04T13:42:38;-1.20;99.90
44305;DHT22;30019;50.576;8.568;2023-12-04T13:45:22;-1.20;99.90
44305;DHT22;30019;50.576;8.568;2023-12-04T13:47:49;-1.20;99.90
44305;DHT22;30019;50.576;8.568;2023-12-04T13:50:15;-1.20;99.90
44305;DHT22;30019;50.576;8.568;2023-12-04T13:52:41;-1.20;99.90
44305;DHT22;30019;50.576;8.568;2023-12-04T13:55:09;-1.20;99.90
44305;DHT22;30019;50.576;8.568;2023-12-04T13:57:44;-1.20;99.90
44305;DHT22;30019;50.576;8.568;2023-12-04T14:00:28;-1.30;99.90
44305;DHT22;30019;50.576;8.568;2023-12-04T14:02:54;-1.30;99.90
44305;DHT22;30019;50.576;8.568;2023-12-04T14:05:29;-1.30;99.90
44305;DHT22;30019;50.576;8.568;2023-12-04T14:07:55;-1.20;99.90
44305;DHT22;30019;50.576;8.568;2023-12-04T14:10:22;-1.20;99.90
44305;DHT22;30019;50.576;8.568;2023-12-04T14:12:47;-1.30;99.90
44305;DHT22;30019;50.576;8.568;2023-12-04T14:15:13;-1.20;99.90
44305;DHT22;30019;50.576;8.568;2023-12-04T14:17:39;-1.30;99.90
44305;DHT22;30019;50.576;8.568;2023-12-04T14:20:06;-1.30;99.90
44305;DHT22;30019;50.576;8.568;2023-12-04T14:22:40;-1.30;99.90
44305;DHT22;30019;50.576;8.568;2023-12-04T14:25:06;-1.30;99.90
44305;DHT22;30019;50.576;8.568;2023-12-04T14:27:33;-1.30;99.90
44305;DHT22;30019;50.576;8.568;2023-12-04T14:29:59;-1.30;99.90
44305;DHT22;30019;50.576;8.568;2023-12-04T14:32:24;-1.30;99.90
44305;DHT22;30019;50.576;8.568;2023-12-04T14:34:50;-1.20;99.90
44305;DHT22;30019;50.576;8.568;2023-12-04T14:37:16;-1.30;99.90
44305;DHT22;30019;50.576;8.568;2023-12-04T14:39:42;-1.30;99.90
44305;DHT22;30019;50.576;8.568;2023-12-04T14:42:07;-1.40;99.90
44305;DHT22;30019;50.576;8.568;2023-12-04T14:44:33;-1.40;99.90
44305;DHT22;30019;50.576;8.568;2023-12-04T14:49:25;-1.30;99.90
44305;DHT22;30019;50.576;8.568;2023-12-04T14:51:50;-1.30;99.90
44305;DHT22;30019;50.576;8.568;2023-12-04T14:54:16;-1.20;99.90
44305;DHT22;30019;50.576;8.568;2023-12-04T14:57:02;-1.20;99.90
44305;DHT22;30019;50.576;8.568;2023-12-04T14:59:46;-1.30;99.90
44305;DHT22;30019;50.576;8.568;2023-12-04T15:02:14;-1.20;99.90
44305;DHT22;30019;50.576;8.568;2023-12-04T15:05:06;-1.30;99.90
44305;DHT22;30019;50.576;8.568;2023-12-04T15:08:05;-1.30;99.90
44305;DHT22;30019;50.576;8.568;2023-12-04T15:10:30;-1.20;99.90
44305;DHT22;30019;50.576;8.568;2023-12-04T15:13:15;-1.20;99.90
44305;DHT22;30019;50.576;8.568;2023-12-04T15:15:55;-1.30;99.90
44305;DHT22;30019;50.576;8.568;2023-12-04T15:18:40;-1.20;99.90
44305;DHT22;30019;50.576;8.568;2023-12-04T15:21:22;-1.20;99.90
44305;DHT22;30019;50.576;8.568;2023-12-04T15:23:48;-1.30;99.90
44305;DHT22;30019;50.576;8.568;2023-12-04T15:26:14;-1.30;99.90
44305;DHT22;30019;50.576;8.568;2023-12-04T15:28:41;-1.30;99.90
44305;DHT22;30019;50.576;8.568;2023-12-04T15:31:07;-1.30;99.90
44305;DHT22;30019;50.576;8.568;2023-12-04T15:33:32;-1.30;99.90
44305;DHT22;30019;50.576;8.568;2023-12-04T15:35:58;-1.30;99.90
44305;DHT22;30019;50.576;8.568;2023-12-04T15:38:23;-1.30;99.90
44305;DHT22;30019;50.576;8.568;2023-12-04T15:40:49;-1.20;99.90
44305;DHT22;30019;50.576;8.568;2023-12-04T15:43:15;-1.20;99.90
44305;DHT22;30019;50.576;8.568;2023-12-04T15:45:41;-1.20;99.90
44305;DHT22;30019;50.576;8.568;2023-12-04T15:48:08;-1.20;99.90